sensor_id;sensor_type;location;lat;lon;timestamp;temperature;humidity
12309;DHT22;6217;48.150;17.142;2023-05-10T13:43:34;19.00;51.90
12309;DHT22;6217;48.150;17.142;2023-05-10T13:47:41;19.00;52.10
12309;DHT22;6217;48.150;17.142;2023-05-10T13:51:48;19.50;51.50
12309;DHT22;6217;48.150;17.142;2023-05-10T13:55:53;19.70;50.10
12309;DHT22;6217;48.150;17.142;2023-05-10T13:59:59;20.00;49.50
12309;DHT22;6217;48.150;17.142;2023-05-10T14:04:05;20.40;48.80
12309;DHT22;6217;48.150;17.142;2023-05-10T14:08:12;20.40;47.90
12309;DHT22;6217;48.150;17.142;2023-05-10T14:12:18;20.50;46.90
12309;DHT22;6217;48.150;17.142;2023-05-10T14:16:24;20.50;46.80
12309;DHT22;6217;48.150;17.142;2023-05-10T14:20:30;20.60;46.90
12309;DHT22;6217;48.150;17.142;2023-05-10T14:24:38;20.60;46.90
12309;DHT22;6217;48.150;17.142;2023-05-10T14:28:44;20.60;47.00
12309;DHT22;6217;48.150;17.142;2023-05-10T14:32:50;20.50;46.80
12309;DHT22;6217;48.150;17.142;2023-05-10T14:36:56;20.60;46.50
12309;DHT22;6217;48.150;17.142;2023-05-10T14:41:01;20.50;46.20
12309;DHT22;6217;48.150;17.142;2023-05-10T14:45:08;20.30;45.90
12309;DHT22;6217;48.150;17.142;2023-05-10T14:49:14;20.20;45.80
12309;DHT22;6217;48.150;17.142;2023-05-10T14:53:20;20.10;45.60
12309;DHT22;6217;48.150;17.142;2023-05-10T14:57:26;20.10;45.70
12309;DHT22;6217;48.150;17.142;2023-05-10T15:01:35;20.10;45.90
12309;DHT22;6217;48.150;17.142;2023-05-10T15:05:43;20.30;45.80
12309;DHT22;6217;48.150;17.142;2023-05-10T15:09:50;20.40;45.10
12309;DHT22;6217;48.150;17.142;2023-05-10T15:13:57;20.40;44.80
12309;DHT22;6217;48.150;17.142;2023-05-10T15:18:03;20.50;45.00
12309;DHT22;6217;48.150;17.142;2023-05-10T15:22:09;20.60;44.80
12309;DHT22;6217;48.150;17.142;2023-05-10T15:26:15;20.60;44.80
12309;DHT22;6217;48.150;17.142;2023-05-10T15:30:21;20.60;45.10
12309;DHT22;6217;48.150;17.142;2023-05-10T15:34:27;20.60;45.20
12309;DHT22;6217;48.150;17.142;2023-05-10T15:38:33;20.60;45.10
12309;DHT22;6217;48.150;17.142;2023-05-10T15:42:39;20.50;45.00
12309;DHT22;6217;48.150;17.142;2023-05-10T15:46:45;20.40;45.00
12309;DHT22;6217;48.150;17.142;2023-05-10T15:50:51;20.40;45.20
12309;DHT22;6217;48.150;17.142;2023-05-10T15:54:57;20.30;45.30
12309;DHT22;6217;48.150;17.142;2023-05-10T15:59:03;20.30;45.10
12309;DHT22;6217;48.150;17.142;2023-05-10T16:03:10;20.30;45.20
12309;DHT22;6217;48.150;17.142;2023-05-10T16:07:17;20.30;45.10
12309;DHT22;6217;48.150;17.142;2023-05-10T16:11:23;20.30;45.10
12309;DHT22;6217;48.150;17.142;2023-05-10T16:15:28;20.30;45.00
12309;DHT22;6217;48.150;17.142;2023-05-10T16:19:34;20.30;45.00
12309;DHT22;6217;48.150;17.142;2023-05-10T16:23:40;20.40;44.90
12309;DHT22;6217;48.150;17.142;2023-05-10T16:27:46;20.40;44.80
12309;DHT22;6217;48.150;17.142;2023-05-10T16:31:52;20.40;44.70
12309;DHT22;6217;48.150;17.142;2023-05-10T16:35:58;20.30;44.60
12309;DHT22;6217;48.150;17.142;2023-05-10T16:40:04;20.30;44.10
12309;DHT22;6217;48.150;17.142;2023-05-10T16:44:11;20.20;44.30
12309;DHT22;6217;48.150;17.142;2023-05-10T16:48:17;20.20;44.50
12309;DHT22;6217;48.150;17.142;2023-05-10T16:52:23;20.10;44.40
12309;DHT22;6217;48.150;17.142;2023-05-10T16:56:29;20.10;44.70
12309;DHT22;6217;48.150;17.142;2023-05-10T17:00:35;20.00;44.80
12309;DHT22;6217;48.150;17.142;2023-05-10T17:04:41;20.00;44.70
12309;DHT22;6217;48.150;17.142;2023-05-10T17:08:47;20.00;44.60
12309;DHT22;6217;48.150;17.142;2023-05-10T17:12:53;19.90;44.20
12309;DHT22;6217;48.150;17.142;2023-05-10T17:16:59;19.90;44.20
12309;DHT22;6217;48.150;17.142;2023-05-10T17:21:05;19.90;44.20
12309;DHT22;6217;48.150;17.142;2023-05-10T17:25:11;19.80;44.20
12309;DHT22;6217;48.150;17.142;2023-05-10T17:29:17;19.80;45.00
12309;DHT22;6217;48.150;17.142;2023-05-10T17:33:23;19.60;44.40
12309;DHT22;6217;48.150;17.142;2023-05-10T17:37:28;19.50;44.70
12309;DHT22;6217;48.150;17.142;2023-05-10T17:41:34;19.50;45.00
12309;DHT22;6217;48.150;17.142;2023-05-10T17:45:40;19.50;45.30
12309;DHT22;6217;48.150;17.142;2023-05-10T17:49:46;19.40;45.50
12309;DHT22;6217;48.150;17.142;2023-05-10T17:53:52;19.40;45.90
12309;DHT22;6217;48.150;17.142;2023-05-10T17:57:58;19.30;46.20
12309;DHT22;6217;48.150;17.142;2023-05-10T18:02:04;19.20;46.40
12309;DHT22;6217;48.150;17.142;2023-05-10T18:06:10;19.10;46.60
12309;DHT22;6217;48.150;17.142;2023-05-10T18:10:16;19.10;46.90
12309;DHT22;6217;48.150;17.142;2023-05-10T18:14:22;19.00;47.10
12309;DHT22;6217;48.150;17.142;2023-05-10T18:18:28;19.10;47.40
12309;DHT22;6217;48.150;17.142;2023-05-10T18:22:34;18.90;47.60
12309;DHT22;6217;48.150;17.142;2023-05-10T18:26:41;18.80;47.80
12309;DHT22;6217;48.150;17.142;2023-05-10T18:30:48;18.80;48.10
12309;DHT22;6217;48.150;17.142;2023-05-10T18:34:53;18.80;48.50
12309;DHT22;6217;48.150;17.142;2023-05-10T18:39:01;18.70;48.70
12309;DHT22;6217;48.150;17.142;2023-05-10T18:43:07;18.60;49.10
12309;DHT22;6217;48.150;17.142;2023-05-10T18:47:13;18.50;49.40
12309;DHT22;6217;48.150;17.142;2023-05-10T18:51:19;18.50;49.60
12309;DHT22;6217;48.150;17.142;2023-05-10T18:55:26;18.40;50.00
12309;DHT22;6217;48.150;17.142;2023-05-10T18:59:33;18.30;50.40
12309;DHT22;6217;48.150;17.142;2023-05-10T19:03:38;18.30;50.60
12309;DHT22;6217;48.150;17.142;2023-05-10T19:07:44;18.20;50.70
12309;DHT22;6217;48.150;17.142;2023-05-10T19:11:51;18.10;51.00
12309;DHT22;6217;48.150;17.142;2023-05-10T19:16:13;18.00;51.20
12309;DHT22;6217;48.150;17.142;2023-05-10T19:20:23;17.90;51.50
12309;DHT22;6217;48.150;17.142;2023-05-10T19:24:29;17.80;51.80
12309;DHT22;6217;48.150;17.142;2023-05-10T19:28:35;17.80;52.10
12309;DHT22;6217;48.150;17.142;2023-05-10T19:32:41;17.70;52.30
12309;DHT22;6217;48.150;17.142;2023-05-10T19:36:49;17.60;52.60
12309;DHT22;6217;48.150;17.142;2023-05-10T19:40:55;17.60;52.80
12309;DHT22;6217;48.150;17.142;2023-05-10T19:45:02;17.50;53.00
12309;DHT22;6217;48.150;17.142;2023-05-10T19:49:08;17.50;53.10
12309;DHT22;6217;48.150;17.142;2023-05-10T19:53:14;17.50;53.20
12309;DHT22;6217;48.150;17.142;2023-05-10T19:57:21;17.40;53.30
12309;DHT22;6217;48.150;17.142;2023-05-10T20:01:26;17.40;53.40
12309;DHT22;6217;48.150;17.142;2023-05-10T20:05:32;17.30;53.50
12309;DHT22;6217;48.150;17.142;2023-05-10T20:09:38;17.30;53.50
12309;DHT22;6217;48.150;17.142;2023-05-10T20:13:44;17.30;53.60
12309;DHT22;6217;48.150;17.142;2023-05-10T20:17:51;17.20;53.60
12309;DHT22;6217;48.150;17.142;2023-05-10T20:21:59;17.20;53.80
12309;DHT22;6217;48.150;17.142;2023-05-10T20:26:05;17.00;54.30
12309;DHT22;6217;48.150;17.142;2023-05-10T20:30:11;16.90;54.70
12309;DHT22;6217;48.150;17.142;2023-05-10T20:34:17;16.70;55.00
12309;DHT22;6217;48.150;17.142;2023-05-10T20:38:23;16.60;55.40
12309;DHT22;6217;48.150;17.142;2023-05-10T20:42:29;16.60;55.50
12309;DHT22;6217;48.150;17.142;2023-05-10T20:46:35;16.60;55.60
12309;DHT22;6217;48.150;17.142;2023-05-10T20:50:42;16.50;55.90
12309;DHT22;6217;48.150;17.142;2023-05-10T20:54:48;16.50;56.00
12309;DHT22;6217;48.150;17.142;2023-05-10T20:58:54;16.50;56.30
12309;DHT22;6217;48.150;17.142;2023-05-10T21:02:59;16.50;56.80
12309;DHT22;6217;48.150;17.142;2023-05-10T21:07:05;16.40;56.90
12309;DHT22;6217;48.150;17.142;2023-05-10T21:11:11;16.30;57.20
12309;DHT22;6217;48.150;17.142;2023-05-10T21:15:17;16.30;57.60
12309;DHT22;6217;48.150;17.142;2023-05-10T21:19:23;16.20;57.80
12309;DHT22;6217;48.150;17.142;2023-05-10T21:23:29;16.20;58.10
12309;DHT22;6217;48.150;17.142;2023-05-10T21:27:35;16.20;58.40
12309;DHT22;6217;48.150;17.142;2023-05-10T21:31:41;16.10;58.50
12309;DHT22;6217;48.150;17.142;2023-05-10T21:35:47;16.10;58.80
12309;DHT22;6217;48.150;17.142;2023-05-10T21:39:53;16.10;59.00
12309;DHT22;6217;48.150;17.142;2023-05-10T21:43:58;16.10;59.20
12309;DHT22;6217;48.150;17.142;2023-05-10T21:48:05;15.90;59.60
12309;DHT22;6217;48.150;17.142;2023-05-10T21:52:10;15.90;60.00
12309;DHT22;6217;48.150;17.142;2023-05-10T21:56:16;15.90;60.20
12309;DHT22;6217;48.150;17.142;2023-05-10T22:00:23;15.90;60.40
12309;DHT22;6217;48.150;17.142;2023-05-10T22:04:40;15.80;60.70
12309;DHT22;6217;48.150;17.142;2023-05-10T22:08:46;15.80;61.10
12309;DHT22;6217;48.150;17.142;2023-05-10T22:12:52;15.70;61.30
12309;DHT22;6217;48.150;17.142;2023-05-10T22:16:57;15.80;61.40
12309;DHT22;6217;48.150;17.142;2023-05-10T22:21:04;15.70;61.60
12309;DHT22;6217;48.150;17.142;2023-05-10T22:25:10;15.60;62.70
12309;DHT22;6217;48.150;17.142;2023-05-10T22:29:15;15.60;62.10
12309;DHT22;6217;48.150;17.142;2023-05-10T22:33:21;15.60;62.50
12309;DHT22;6217;48.150;17.142;2023-05-10T22:37:27;15.60;62.70
12309;DHT22;6217;48.150;17.142;2023-05-10T22:41:33;15.60;62.90
12309;DHT22;6217;48.150;17.142;2023-05-10T22:45:39;15.50;62.80
12309;DHT22;6217;48.150;17.142;2023-05-10T22:49:45;15.60;63.00
12309;DHT22;6217;48.150;17.142;2023-05-10T22:53:51;15.60;63.00
12309;DHT22;6217;48.150;17.142;2023-05-10T22:57:57;15.60;63.10
12309;DHT22;6217;48.150;17.142;2023-05-10T23:02:03;15.60;63.20
12309;DHT22;6217;48.150;17.142;2023-05-10T23:06:09;15.60;63.40
12309;DHT22;6217;48.150;17.142;2023-05-10T23:10:15;15.60;63.30
12309;DHT22;6217;48.150;17.142;2023-05-10T23:14:22;15.50;63.50
12309;DHT22;6217;48.150;17.142;2023-05-10T23:18:28;15.50;63.80
12309;DHT22;6217;48.150;17.142;2023-05-10T23:22:34;15.50;64.10
12309;DHT22;6217;48.150;17.142;2023-05-10T23:26:40;15.40;64.00
12309;DHT22;6217;48.150;17.142;2023-05-10T23:30:56;15.40;64.20
12309;DHT22;6217;48.150;17.142;2023-05-10T23:35:03;15.30;64.30
12309;DHT22;6217;48.150;17.142;2023-05-10T23:39:09;15.30;64.40
12309;DHT22;6217;48.150;17.142;2023-05-10T23:43:15;15.30;64.60
12309;DHT22;6217;48.150;17.142;2023-05-10T23:47:22;15.30;64.70
12309;DHT22;6217;48.150;17.142;2023-05-10T23:51:28;15.20;64.80
12309;DHT22;6217;48.150;17.142;2023-05-10T23:55:34;15.20;64.90
12309;DHT22;6217;48.150;17.142;2023-05-10T23:59:39;15.20;64.90
